Time;durP1;ratioP1;P1;durP2;ratioP2;P2;SDS_P1;SDS_P2;PMS_P1;PMS_P2;Temp;Humidity;BMP_temperature;BMP_pressure;BME280_temperature;BME280_humidity;BME280_pressure;Samples;Min_cycle;Max_cycle;Signal;HPM_P1;HPM_P2
2023/07/30 00:00:03;;;;;;;;;;;;;;;17.73;100.00;100378.06;4205272;28;19931;-64
2023/07/30 00:02:16;;;;;;;;;;;;;;;17.70;100.00;100384.00;4204459;28;19935;-64
2023/07/30 00:04:23;;;;;;;;;;;;;;;17.67;100.00;100379.00;4204497;28;19924;-63
2023/07/30 00:06:30;;;;;;;;;;;;;;;17.67;100.00;100381.72;4203601;28;20384;-64
2023/07/30 00:08:38;;;;;;;;;;;;;;;17.65;100.00;100379.22;4204125;28;20405;-63
2023/07/30 00:10:43;;;;;;;;;;;;;;;17.66;100.00;100378.13;4203550;28;20314;-64
2023/07/30 00:12:47;;;;;;;;;;;;;;;17.64;100.00;100380.28;4204328;28;19930;-62
2023/07/30 00:14:49;;;;;;;;;;;;;;;17.61;100.00;100378.00;4204286;28;19929;-64
2023/07/30 00:16:53;;;;;;;;;;;;;;;17.57;100.00;100372.19;4203714;28;19932;-63
2023/07/30 00:18:58;;;;;;;;;;;;;;;17.55;100.00;100370.75;4204118;28;19925;-64
2023/07/30 00:21:01;;;;;;;;;;;;;;;17.55;100.00;100378.94;4204651;28;19924;-63
2023/07/30 00:23:03;;;;;;;;;;;;;;;17.52;100.00;100380.22;4204663;28;19924;-63
2023/07/30 00:25:06;;;;;;;;;;;;;;;17.50;100.00;100374.16;4205084;28;19925;-63
2023/07/30 00:27:11;;;;;;;;;;;;;;;17.48;100.00;100365.38;4204449;28;20386;-64
2023/07/30 00:29:13;;;;;;;;;;;;;;;17.47;100.00;100371.91;4204421;28;20843;-61
2023/07/30 00:31:17;;;;;;;;;;;;;;;17.44;100.00;100366.91;4202880;28;19924;-64
2023/07/30 00:33:24;;;;;;;;;;;;;;;17.42;100.00;100367.13;4201634;28;19935;-63
2023/07/30 00:35:26;;;;;;;;;;;;;;;17.41;100.00;100370.09;4204655;28;20524;-63
2023/07/30 00:37:29;;;;;;;;;;;;;;;17.38;100.00;100373.28;4185468;28;19987;-63
2023/07/30 00:39:34;;;;;;;;;;;;;;;17.37;100.00;100364.28;4170523;28;19925;-63
2023/07/30 00:41:39;;;;;;;;;;;;;;;17.37;100.00;100361.53;4203481;28;19924;-64
2023/07/30 00:43:42;;;;;;;;;;;;;;;17.36;100.00;100356.31;4204763;28;19934;-63
2023/07/30 00:45:47;;;;;;;;;;;;;;;17.37;100.00;100349.81;4204552;28;19935;-63
2023/07/30 00:47:52;;;;;;;;;;;;;;;17.39;100.00;100340.31;4203092;28;19932;-63
2023/07/30 00:49:56;;;;;;;;;;;;;;;17.42;100.00;100342.56;4203237;28;19924;-64
2023/07/30 00:52:01;;;;;;;;;;;;;;;17.45;100.00;100335.81;4204522;28;19930;-63
2023/07/30 00:54:08;;;;;;;;;;;;;;;17.45;100.00;100333.91;4203973;28;19924;-63
2023/07/30 00:56:10;;;;;;;;;;;;;;;17.40;100.00;100335.69;4185913;28;19931;-63
2023/07/30 00:58:15;;;;;;;;;;;;;;;17.40;100.00;100343.88;4203466;28;19934;-63
2023/07/30 01:00:17;;;;;;;;;;;;;;;17.37;100.00;100342.44;4203985;28;19928;-64
2023/07/30 01:02:19;;;;;;;;;;;;;;;17.34;100.00;100350.28;4203238;28;19934;-64
2023/07/30 01:04:25;;;;;;;;;;;;;;;17.29;100.00;100354.50;4204169;28;19930;-63
2023/07/30 01:06:27;;;;;;;;;;;;;;;17.25;100.00;100353.28;4204329;28;19930;-63
2023/07/30 01:08:34;;;;;;;;;;;;;;;17.23;100.00;100349.16;4169145;28;19933;-65
2023/07/30 01:10:45;;;;;;;;;;;;;;;17.22;100.00;100347.47;4203043;28;19991;-63
2023/07/30 01:12:47;;;;;;;;;;;;;;;17.18;100.00;100352.56;4203723;28;19950;-64
2023/07/30 01:14:58;;;;;;;;;;;;;;;17.15;100.00;100352.19;4203925;28;20306;-64
2023/07/30 01:17:01;;;;;;;;;;;;;;;17.11;100.00;100360.84;4185501;28;19925;-65
2023/07/30 01:19:09;;;;;;;;;;;;;;;17.08;100.00;100364.03;4203454;28;19950;-65
2023/07/30 01:21:15;;;;;;;;;;;;;;;17.07;100.00;100367.00;4202899;28;19931;-63
2023/07/30 01:23:18;;;;;;;;;;;;;;;17.04;100.00;100373.72;4185505;28;20338;-64
2023/07/30 01:25:22;;;;;;;;;;;;;;;17.00;100.00;100377.97;4179958;28;19935;-64
2023/07/30 01:27:29;;;;;;;;;;;;;;;16.97;100.00;100378.44;4202198;28;20314;-64
2023/07/30 01:29:39;;;;;;;;;;;;;;;16.97;100.00;100380.31;4186302;28;20342;-64
2023/07/30 01:31:43;;;;;;;;;;;;;;;16.93;100.00;100380.78;4203097;28;19930;-63
2023/07/30 01:33:45;;;;;;;;;;;;;;;16.91;100.00;100384.78;4185568;28;20322;-63
2023/07/30 01:35:48;;;;;;;;;;;;;;;16.89;100.00;100386.91;4203861;28;19989;-62
2023/07/30 01:37:56;;;;;;;;;;;;;;;16.90;100.00;100394.06;4183194;28;19925;-65
2023/07/30 01:39:58;;;;;;;;;;;;;;;16.85;100.00;100394.69;4183049;28;20393;-63
2023/07/30 01:42:00;;;;;;;;;;;;;;;16.82;100.00;100389.69;4185040;28;19925;-66
2023/07/30 01:44:06;;;;;;;;;;;;;;;16.80;100.00;100389.06;4202424;28;19939;-64
2023/07/30 01:46:08;;;;;;;;;;;;;;;16.77;100.00;100384.09;4202083;28;19924;-64
2023/07/30 01:48:10;;;;;;;;;;;;;;;16.74;100.00;100388.09;4203217;28;20411;-63
2023/07/30 01:50:15;;;;;;;;;;;;;;;16.74;100.00;100395.47;4169711;28;19936;-63
2023/07/30 01:52:17;;;;;;;;;;;;;;;16.72;100.00;100398.41;4202024;28;19924;-64
2023/07/30 01:54:21;;;;;;;;;;;;;;;16.72;100.00;100389.38;4201016;28;19928;-64
2023/07/30 01:56:23;;;;;;;;;;;;;;;16.71;100.00;100385.84;4203391;28;19928;-63
2023/07/30 01:58:28;;;;;;;;;;;;;;;16.68;100.00;100374.56;4185024;28;20215;-62
2023/07/30 02:00:30;;;;;;;;;;;;;;;16.68;100.00;100386.28;4184235;28;20661;-63
2023/07/30 02:02:39;;;;;;;;;;;;;;;16.69;100.00;100389.81;4203460;28;19951;-63
2023/07/30 02:04:41;;;;;;;;;;;;;;;16.68;100.00;100385.47;4203575;28;19928;-64
2023/07/30 02:06:42;;;;;;;;;;;;;;;16.66;100.00;100391.13;4185202;28;19941;-64
2023/07/30 02:08:47;;;;;;;;;;;;;;;16.65;100.00;100400.38;4184136;28;19924;-65
2023/07/30 02:10:57;;;;;;;;;;;;;;;16.65;100.00;100394.09;4169403;28;19925;-64
2023/07/30 02:12:59;;;;;;;;;;;;;;;16.64;100.00;100389.69;4166586;28;19931;-64
2023/07/30 02:15:01;;;;;;;;;;;;;;;16.64;100.00;100387.78;4169198;28;19925;-65
2023/07/30 02:17:03;;;;;;;;;;;;;;;16.65;100.00;100396.81;4184137;28;19932;-63
2023/07/30 02:19:06;;;;;;;;;;;;;;;16.65;100.00;100405.00;4203227;28;19924;-63
2023/07/30 02:21:08;;;;;;;;;;;;;;;16.62;100.00;100397.25;4165015;28;19929;-64
2023/07/30 02:23:12;;;;;;;;;;;;;;;16.61;100.00;100390.13;4168646;28;19931;-64
2023/07/30 02:25:14;;;;;;;;;;;;;;;16.58;100.00;100402.31;4198816;28;19928;-64
2023/07/30 02:27:17;;;;;;;;;;;;;;;16.60;100.00;100407.53;4203144;28;19930;-62
2023/07/30 02:29:19;;;;;;;;;;;;;;;16.61;100.00;100395.59;4203064;28;20291;-64
2023/07/30 02:31:21;;;;;;;;;;;;;;;16.58;100.00;100402.31;4203004;28;19928;-64
2023/07/30 02:33:24;;;;;;;;;;;;;;;16.53;100.00;100411.16;4184603;28;19925;-64
2023/07/30 02:35:26;;;;;;;;;;;;;;;16.53;100.00;100402.97;4201867;28;19924;-64
2023/07/30 02:37:28;;;;;;;;;;;;;;;16.53;100.00;100407.63;4202385;28;20271;-64
2023/07/30 02:39:31;;;;;;;;;;;;;;;16.53;100.00;100399.44;4183741;28;19928;-63
2023/07/30 02:41:33;;;;;;;;;;;;;;;16.50;100.00;100400.72;4203276;28;19931;-63
2023/07/30 02:43:35;;;;;;;;;;;;;;;16.45;100.00;100397.81;4203529;28;19930;-64
2023/07/30 02:45:39;;;;;;;;;;;;;;;16.43;100.00;100404.59;4202855;28;19925;-64
2023/07/30 02:47:42;;;;;;;;;;;;;;;16.39;100.00;100409.63;4184372;28;19924;-63
2023/07/30 02:49:44;;;;;;;;;;;;;;;16.35;100.00;100405.69;4184619;28;19925;-63
2023/07/30 02:51:48;;;;;;;;;;;;;;;16.30;100.00;100414.53;4184812;28;19975;-64
2023/07/30 02:53:52;;;;;;;;;;;;;;;16.27;100.00;100405.97;4204960;28;19938;-63
2023/07/30 02:55:54;;;;;;;;;;;;;;;16.25;100.00;100410.81;4205601;28;20306;-62
2023/07/30 02:57:56;;;;;;;;;;;;;;;16.24;100.00;100409.13;4206382;28;19925;-63
2023/07/30 03:00:00;;;;;;;;;;;;;;;16.23;100.00;100408.31;4205664;28;19924;-63
2023/07/30 03:02:04;;;;;;;;;;;;;;;16.21;100.00;100413.97;4206381;28;20379;-62
2023/07/30 03:04:07;;;;;;;;;;;;;;;16.20;100.00;100420.47;4171520;28;19941;-63
2023/07/30 03:06:09;;;;;;;;;;;;;;;16.19;100.00;100412.50;4186994;28;19959;-64
2023/07/30 03:08:11;;;;;;;;;;;;;;;16.20;100.00;100408.75;4205050;28;19924;-63
2023/07/30 03:10:15;;;;;;;;;;;;;;;16.19;100.00;100407.91;4204945;28;19932;-63
2023/07/30 03:12:17;;;;;;;;;;;;;;;16.17;100.00;100415.47;4187038;28;19924;-63
2023/07/30 03:14:20;;;;;;;;;;;;;;;16.16;100.00;100411.09;4205460;28;19935;-63
2023/07/30 03:16:27;;;;;;;;;;;;;;;16.16;100.00;100416.53;4205740;28;19928;-63
2023/07/30 03:18:29;;;;;;;;;;;;;;;16.15;100.00;100416.75;4170696;28;19925;-64
2023/07/30 03:20:31;;;;;;;;;;;;;;;16.14;100.00;100415.91;4205888;28;19924;-64
2023/07/30 03:22:34;;;;;;;;;;;;;;;16.13;100.00;100408.81;4205419;28;20531;-63
2023/07/30 03:24:36;;;;;;;;;;;;;;;16.12;100.00;100406.31;4187016;28;19924;-63
2023/07/30 03:26:38;;;;;;;;;;;;;;;16.11;100.00;100410.94;4185883;28;19932;-63
2023/07/30 03:28:40;;;;;;;;;;;;;;;16.10;100.00;100409.25;4186772;28;19928;-64
2023/07/30 03:30:43;;;;;;;;;;;;;;;16.08;100.00;100407.78;4205795;28;19931;-63
2023/07/30 03:32:47;;;;;;;;;;;;;;;16.08;100.00;100407.78;4205438;28;20408;-63
2023/07/30 03:34:48;;;;;;;;;;;;;;;16.06;100.00;100423.53;4186604;28;19928;-63
2023/07/30 03:36:50;;;;;;;;;;;;;;;16.05;100.00;100428.16;4204612;28;20365;-64
2023/07/30 03:38:52;;;;;;;;;;;;;;;16.02;100.00;100423.16;4205209;28;19934;-63
2023/07/30 03:40:54;;;;;;;;;;;;;;;16.00;100.00;100430.69;4186716;28;19937;-64
2023/07/30 03:43:01;;;;;;;;;;;;;;;15.96;100.00;100435.75;4187485;28;19936;-61
2023/07/30 03:45:05;;;;;;;;;;;;;;;15.92;100.00;100429.06;4205583;28;19928;-63
2023/07/30 03:47:10;;;;;;;;;;;;;;;15.95;100.00;100442.25;4186145;28;19929;-62
2023/07/30 03:49:13;;;;;;;;;;;;;;;15.94;100.00;100440.59;4185848;28;19925;-63
2023/07/30 03:51:15;;;;;;;;;;;;;;;15.94;100.00;100440.59;4204292;28;19924;-63
2023/07/30 03:53:17;;;;;;;;;;;;;;;15.93;100.00;100438.09;4204932;28;19924;-64
2023/07/30 03:55:20;;;;;;;;;;;;;;;15.92;100.00;100436.41;4205362;28;19934;-64
2023/07/30 03:57:22;;;;;;;;;;;;;;;15.95;100.00;100438.69;4205168;28;19946;-63
2023/07/30 03:59:24;;;;;;;;;;;;;;;15.95;100.00;100442.25;4205168;28;20507;-64
2023/07/30 04:01:29;;;;;;;;;;;;;;;15.95;100.00;100447.69;4186886;28;19924;-64
2023/07/30 04:03:31;;;;;;;;;;;;;;;15.96;100.00;100441.19;4205204;28;19924;-63
2023/07/30 04:05:37;;;;;;;;;;;;;;;15.96;100.00;100435.75;4203725;28;19924;-65
2023/07/30 04:07:39;;;;;;;;;;;;;;;15.97;100.00;100444.75;4204382;28;19925;-63
2023/07/30 04:09:41;;;;;;;;;;;;;;;15.98;100.00;100440.97;4204975;28;19928;-64
2023/07/30 04:11:46;;;;;;;;;;;;;;;15.98;100.00;100435.53;4205035;28;19942;-63
2023/07/30 04:13:48;;;;;;;;;;;;;;;15.99;100.00;100439.94;4204070;28;19950;-63
2023/07/30 04:15:50;;;;;;;;;;;;;;;16.01;100.00;100445.97;4204832;28;19939;-64
2023/07/30 04:17:53;;;;;;;;;;;;;;;16.02;100.00;100453.13;4205048;28;19928;-63
2023/07/30 04:19:55;;;;;;;;;;;;;;;16.04;100.00;100448.28;4203757;28;19935;-64
2023/07/30 04:21:58;;;;;;;;;;;;;;;16.06;100.00;100448.06;4204066;28;19924;-63
2023/07/30 04:24:01;;;;;;;;;;;;;;;16.07;100.00;100455.19;4186649;28;19925;-64
2023/07/30 04:26:03;;;;;;;;;;;;;;;16.08;100.00;100454.09;4204880;28;19931;-63
2023/07/30 04:28:06;;;;;;;;;;;;;;;16.09;100.00;100450.34;4186895;28;19979;-64
2023/07/30 04:30:09;;;;;;;;;;;;;;;16.09;100.00;100448.44;4184638;28;20298;-64
2023/07/30 04:32:12;;;;;;;;;;;;;;;16.13;100.00;100449.69;4204923;28;19924;-64
2023/07/30 04:34:14;;;;;;;;;;;;;;;16.15;100.00;100449.44;4204873;28;19928;-61
2023/07/30 04:36:18;;;;;;;;;;;;;;;16.15;100.00;100446.72;4169092;28;19925;-64
2023/07/30 04:38:25;;;;;;;;;;;;;;;16.16;100.00;100451.09;4169625;28;19931;-64
2023/07/30 04:40:27;;;;;;;;;;;;;;;16.17;100.00;100458.22;4186590;28;19925;-64
2023/07/30 04:42:30;;;;;;;;;;;;;;;16.17;100.00;100450.06;4205025;28;19934;-64
2023/07/30 04:44:32;;;;;;;;;;;;;;;16.19;100.00;100456.09;4204151;28;19928;-62
2023/07/30 04:46:41;;;;;;;;;;;;;;;16.20;100.00;100453.16;4186429;28;20349;-64
2023/07/30 04:48:43;;;;;;;;;;;;;;;16.21;100.00;100446.66;4185652;28;20413;-65
2023/07/30 04:50:47;;;;;;;;;;;;;;;16.24;100.00;100450.00;4185542;28;19935;-64
2023/07/30 04:52:49;;;;;;;;;;;;;;;16.26;100.00;100461.53;4204463;28;19948;-64
2023/07/30 04:54:54;;;;;;;;;;;;;;;16.30;100.00;100455.41;4204421;28;19924;-63
2023/07/30 04:56:58;;;;;;;;;;;;;;;16.32;100.00;100457.91;4204865;28;19924;-64
2023/07/30 04:59:03;;;;;;;;;;;;;;;16.32;100.00;100461.47;4203476;28;20374;-64
2023/07/30 05:01:08;;;;;;;;;;;;;;;16.34;100.00;100461.25;4185118;28;19929;-63
2023/07/30 05:03:10;;;;;;;;;;;;;;;16.35;100.00;100461.03;4185583;28;19925;-63
2023/07/30 05:05:13;;;;;;;;;;;;;;;16.38;100.00;100460.59;4202887;28;19932;-64
2023/07/30 05:07:15;;;;;;;;;;;;;;;16.40;100.00;100460.38;4201913;28;19929;-64
2023/07/30 05:09:16;;;;;;;;;;;;;;;16.41;100.00;100456.59;4203325;28;20393;-64
2023/07/30 05:11:19;;;;;;;;;;;;;;;16.43;100.00;100453.66;4202718;28;19931;-65
2023/07/30 05:13:24;;;;;;;;;;;;;;;16.46;100.00;100454.03;4203309;28;20306;-64
2023/07/30 05:15:26;;;;;;;;;;;;;;;16.50;100.00;100460.69;4203682;28;19928;-64
2023/07/30 05:17:28;;;;;;;;;;;;;;;16.53;100.00;100459.41;4203765;28;19924;-64
2023/07/30 05:19:31;;;;;;;;;;;;;;;16.54;100.00;100456.47;4201731;28;19924;-64
2023/07/30 05:21:34;;;;;;;;;;;;;;;16.58;100.00;100454.97;4203199;28;20406;-64
2023/07/30 05:23:36;;;;;;;;;;;;;;;16.61;100.00;100459.13;4203141;28;19933;-65
2023/07/30 05:25:38;;;;;;;;;;;;;;;16.64;100.00;100457.84;4204308;28;19934;-64
2023/07/30 05:27:44;;;;;;;;;;;;;;;16.66;100.00;100466.63;4202951;28;19931;-65
2023/07/30 05:29:49;;;;;;;;;;;;;;;16.69;100.00;100469.75;4203333;28;19931;-63
2023/07/30 05:31:51;;;;;;;;;;;;;;;16.72;100.00;100460.28;4204024;28;19924;-65
2023/07/30 05:33:54;;;;;;;;;;;;;;;16.76;100.00;100466.97;4203331;28;20287;-65
2023/07/30 05:35:57;;;;;;;;;;;;;;;16.80;100.00;100462.72;4202473;28;19939;-65
2023/07/30 05:37:59;;;;;;;;;;;;;;;16.84;100.00;100465.84;4203590;28;20305;-64
2023/07/30 05:40:01;;;;;;;;;;;;;;;16.87;100.00;100460.78;4202411;28;19931;-64
2023/07/30 05:42:03;;;;;;;;;;;;;;;16.91;100.00;100464.75;4202967;28;19924;-63
2023/07/30 05:44:09;;;;;;;;;;;;;;;16.96;100.00;100465.94;4204108;28;19935;-64
2023/07/30 05:46:11;;;;;;;;;;;;;;;16.99;100.00;100463.63;4201920;28;19931;-64
2023/07/30 05:48:13;;;;;;;;;;;;;;;17.01;100.00;100456.03;4202071;28;20575;-63
2023/07/30 05:50:16;;;;;;;;;;;;;;;17.04;100.00;100461.03;4202519;28;19931;-64
2023/07/30 05:52:18;;;;;;;;;;;;;;;17.07;100.00;100462.50;4185066;28;19928;-64
2023/07/30 05:54:23;;;;;;;;;;;;;;;17.10;100.00;100464.75;4202993;28;19935;-64
2023/07/30 05:56:25;;;;;;;;;;;;;;;17.14;100.00;100470.59;4203143;28;19924;-63
2023/07/30 05:58:31;;;;;;;;;;;;;;;17.17;100.00;100470.97;4202754;28;19924;-65
2023/07/30 06:00:34;;;;;;;;;;;;;;;17.20;100.00;100466.97;4202938;28;19954;-64
2023/07/30 06:02:39;;;;;;;;;;;;;;;17.23;100.00;100458.31;4201055;28;20161;-65
2023/07/30 06:04:41;;;;;;;;;;;;;;;17.26;100.00;100460.59;4202062;28;20412;-64
2023/07/30 06:06:43;;;;;;;;;;;;;;;17.31;100.00;100463.47;4202782;28;19930;-64
2023/07/30 06:08:45;;;;;;;;;;;;;;;17.34;100.00;100465.72;4202947;28;19928;-64
2023/07/30 06:10:48;;;;;;;;;;;;;;;17.36;100.00;100463.59;4203055;28;19934;-65
2023/07/30 06:12:52;;;;;;;;;;;;;;;17.39;100.00;100460.41;4203278;28;20391;-65
2023/07/30 06:14:54;;;;;;;;;;;;;;;17.44;100.00;100459.72;4203925;28;19928;-64
2023/07/30 06:17:02;;;;;;;;;;;;;;;17.47;100.00;100471.00;4202067;28;19938;-63
2023/07/30 06:19:05;;;;;;;;;;;;;;;17.52;100.00;100472.22;4202629;28;19924;-63
2023/07/30 06:21:09;;;;;;;;;;;;;;;17.57;100.00;100472.38;4203065;28;19928;-63
2023/07/30 06:23:11;;;;;;;;;;;;;;;17.61;100.00;100468.13;4202556;28;19924;-63
2023/07/30 06:25:16;;;;;;;;;;;;;;;17.63;100.00;100463.25;4203166;28;19931;-64
2023/07/30 06:27:19;;;;;;;;;;;;;;;17.66;100.00;100473.72;4203284;28;19950;-63
2023/07/30 06:29:26;;;;;;;;;;;;;;;17.68;100.00;100477.06;4206363;28;19939;-64
2023/07/30 06:31:29;;;;;;;;;;;;;;;17.71;100.00;100471.16;4205307;28;19924;-63
2023/07/30 06:33:37;;;;;;;;;;;;;;;17.73;100.00;100471.75;4206343;28;19931;-63
2023/07/30 06:35:43;;;;;;;;;;;;;;;17.75;100.00;100471.50;4187707;28;19925;-64
2023/07/30 06:37:46;;;;;;;;;;;;;;;17.79;100.00;100472.69;4205922;28;19924;-64
2023/07/30 06:40:00;;;;;;;;;;;;;;;17.81;100.00;100476.88;4205958;28;19934;-63
2023/07/30 06:42:05;;;;;;;;;;;;;;;17.82;100.00;100469.50;4204902;28;19933;-62
2023/07/30 06:44:09;;;;;;;;;;;;;;;17.85;100.00;100471.78;4173064;28;19925;-63
2023/07/30 06:46:10;;;;;;;;;;;;;;;17.88;100.00;100479.53;4205547;28;19924;-63
2023/07/30 06:48:15;;;;;;;;;;;;;;;17.91;100.00;100481.81;4204777;28;19928;-63
2023/07/30 06:50:20;;;;;;;;;;;;;;;17.93;100.00;100474.22;4206015;28;19924;-63
2023/07/30 06:52:25;;;;;;;;;;;;;;;17.96;100.00;100478.38;4205699;28;19924;-63
2023/07/30 06:54:29;;;;;;;;;;;;;;;18.00;100.00;100477.69;4206181;28;20378;-63
2023/07/30 06:56:31;;;;;;;;;;;;;;;18.03;100.00;100478.31;4205929;28;19931;-63
2023/07/30 06:58:33;;;;;;;;;;;;;;;18.05;100.00;100478.91;4206291;28;20345;-63
2023/07/30 07:00:35;;;;;;;;;;;;;;;18.06;100.00;100481.41;4205202;28;19928;-63
2023/07/30 07:02:40;;;;;;;;;;;;;;;18.10;99.92;100487.22;4204990;28;20390;-64
2023/07/30 07:04:50;;;;;;;;;;;;;;;18.12;99.96;100474.16;4205435;28;19928;-64
2023/07/30 07:06:54;;;;;;;;;;;;;;;18.14;99.87;100475.59;4205002;28;20247;-62
2023/07/30 07:08:56;;;;;;;;;;;;;;;18.16;100.00;100478.91;4203793;28;20279;-64
2023/07/30 07:10:59;;;;;;;;;;;;;;;18.19;99.67;100478.44;4204718;28;19928;-63
2023/07/30 07:13:02;;;;;;;;;;;;;;;18.22;99.25;100482.63;4204611;28;19934;-63
2023/07/30 07:15:10;;;;;;;;;;;;;;;18.24;99.02;100476.91;4204468;28;19928;-64
2023/07/30 07:17:12;;;;;;;;;;;;;;;18.26;98.86;100477.50;4204820;28;19929;-63
2023/07/30 07:19:15;;;;;;;;;;;;;;;18.28;98.67;100467.19;4204172;28;19927;-62
2023/07/30 07:21:26;;;;;;;;;;;;;;;18.30;98.79;100471.34;4203666;28;19924;-63
2023/07/30 07:23:33;;;;;;;;;;;;;;;18.35;98.07;100462.44;4202950;28;19932;-64
2023/07/30 07:25:40;;;;;;;;;;;;;;;18.39;97.71;100462.81;4202325;28;19939;-63
2023/07/30 07:27:42;;;;;;;;;;;;;;;18.39;97.80;100466.38;4204861;28;19924;-63
2023/07/30 07:29:47;;;;;;;;;;;;;;;18.43;97.72;100462.13;4202287;28;19935;-64
2023/07/30 07:31:53;;;;;;;;;;;;;;;18.49;97.27;100452.13;4204860;28;20382;-63
2023/07/30 07:33:55;;;;;;;;;;;;;;;18.57;96.32;100453.66;4204070;28;19932;-63
2023/07/30 07:36:03;;;;;;;;;;;;;;;18.59;96.28;100451.53;4204774;28;19935;-63
2023/07/30 07:38:09;;;;;;;;;;;;;;;18.62;95.56;100456.50;4203613;28;20042;-63
2023/07/30 07:40:13;;;;;;;;;;;;;;;18.65;94.89;100456.91;4204540;28;19931;-63
2023/07/30 07:42:17;;;;;;;;;;;;;;;18.65;94.67;100456.03;4204858;28;19924;-63
2023/07/30 07:44:19;;;;;;;;;;;;;;;18.68;94.46;100458.31;4204640;28;19928;-64
2023/07/30 07:46:22;;;;;;;;;;;;;;;18.73;93.83;100459.25;4204132;28;19928;-63
2023/07/30 07:48:24;;;;;;;;;;;;;;;18.83;92.93;100461.41;4204091;28;19928;-68
2023/07/30 07:50:27;;;;;;;;;;;;;;;19.02;93.22;100459.38;4203995;28;19928;-69
2023/07/30 07:52:29;;;;;;;;;;;;;;;19.19;92.51;100458.66;4203689;28;19928;-71
2023/07/30 07:54:38;;;;;;;;;;;;;;;19.31;91.03;100459.47;4201913;28;19928;-72
2023/07/30 07:56:46;;;;;;;;;;;;;;;19.41;89.51;100465.13;4203350;28;19928;-73
2023/07/30 07:58:48;;;;;;;;;;;;;;;19.53;88.61;100458.78;4202661;28;19934;-71
2023/07/30 08:00:51;;;;;;;;;;;;;;;19.61;87.66;100461.16;4202389;28;19932;-69
2023/07/30 08:02:53;;;;;;;;;;;;;;;19.69;87.06;100452.53;4204532;28;19934;-72
2023/07/30 08:05:00;;;;;;;;;;;;;;;19.76;86.45;100455.97;4203980;28;19924;-71
2023/07/30 08:07:05;;;;;;;;;;;;;;;19.80;85.81;100451.69;4204364;28;19935;-71
2023/07/30 08:09:07;;;;;;;;;;;;;;;19.89;85.16;100460.34;4204085;28;20381;-72
2023/07/30 08:11:09;;;;;;;;;;;;;;;19.94;85.00;100463.19;4203210;28;19928;-70
2023/07/30 08:13:13;;;;;;;;;;;;;;;19.98;84.59;100464.38;4203738;28;20377;-71
2023/07/30 08:15:19;;;;;;;;;;;;;;;20.04;84.12;100468.00;4204044;28;19925;-72
2023/07/30 08:17:22;;;;;;;;;;;;;;;20.08;83.94;100457.41;4204403;28;19929;-71
2023/07/30 08:19:24;;;;;;;;;;;;;;;20.12;83.54;100470.34;4203996;28;19946;-73
2023/07/30 08:21:26;;;;;;;;;;;;;;;20.12;83.16;100459.38;4204024;28;19954;-70
2023/07/30 08:23:33;;;;;;;;;;;;;;;20.19;83.00;100463.88;4203931;28;19930;-71
2023/07/30 08:25:39;;;;;;;;;;;;;;;20.23;82.83;100459.56;4204755;28;19929;-71
2023/07/30 08:27:41;;;;;;;;;;;;;;;20.26;82.64;100459.06;4203970;28;20298;-72
2023/07/30 08:29:45;;;;;;;;;;;;;;;20.28;82.10;100468.72;4202497;28;19935;-71
2023/07/30 08:31:49;;;;;;;;;;;;;;;20.31;82.11;100464.63;4202008;28;19928;-71
2023/07/30 08:33:52;;;;;;;;;;;;;;;20.33;81.85;100466.06;4200910;28;19929;-71
2023/07/30 08:35:59;;;;;;;;;;;;;;;20.36;81.26;100475.72;4184967;28;19963;-72
2023/07/30 08:38:02;;;;;;;;;;;;;;;20.36;80.54;100478.44;4201953;28;19924;-71
2023/07/30 08:40:06;;;;;;;;;;;;;;;20.37;80.59;100471.88;4202427;28;19925;-71
2023/07/30 08:42:09;;;;;;;;;;;;;;;20.39;80.28;100472.47;4204024;28;19925;-71
2023/07/30 08:44:11;;;;;;;;;;;;;;;20.41;80.00;100461.25;4202528;28;19934;-70
2023/07/30 08:46:17;;;;;;;;;;;;;;;20.43;80.21;100484.59;4201459;28;19924;-70
2023/07/30 08:48:18;;;;;;;;;;;;;;;20.46;79.43;100466.81;4201822;28;20394;-70
2023/07/30 08:50:21;;;;;;;;;;;;;;;20.46;79.36;100456.66;4201865;28;19935;-71
2023/07/30 08:52:30;;;;;;;;;;;;;;;20.49;78.82;100469.06;4204553;28;19934;-72
2023/07/30 08:54:33;;;;;;;;;;;;;;;20.49;78.50;100464.38;4203562;28;19934;-70
2023/07/30 08:56:36;;;;;;;;;;;;;;;20.51;78.65;100464.97;4203891;28;19934;-71
2023/07/30 08:58:38;;;;;;;;;;;;;;;20.51;78.08;100456.72;4203433;28;20374;-71
2023/07/30 09:00:40;;;;;;;;;;;;;;;20.52;77.63;100458.41;4202728;28;20275;-71
2023/07/30 09:02:48;;;;;;;;;;;;;;;20.57;77.68;100454.91;4203317;28;19924;-71
2023/07/30 09:04:52;;;;;;;;;;;;;;;20.59;77.58;100460.16;4202092;28;19938;-73
2023/07/30 09:06:59;;;;;;;;;;;;;;;20.60;77.48;100459.06;4203604;28;19924;-69
2023/07/30 09:09:05;;;;;;;;;;;;;;;20.61;77.22;100466.19;4203192;28;20317;-72
2023/07/30 09:11:07;;;;;;;;;;;;;;;20.62;76.96;100459.66;4201428;28;20305;-71
2023/07/30 09:13:10;;;;;;;;;;;;;;;20.63;76.97;100467.63;4184574;28;19929;-71
2023/07/30 09:15:12;;;;;;;;;;;;;;;20.64;76.94;100471.19;4202552;28;20568;-72
2023/07/30 09:17:17;;;;;;;;;;;;;;;20.66;76.77;100463.59;4203952;28;19928;-71
2023/07/30 09:19:23;;;;;;;;;;;;;;;20.67;76.80;100465.22;4201993;28;19925;-72
2023/07/30 09:21:35;;;;;;;;;;;;;;;20.67;76.67;100463.34;4202515;28;19947;-73
2023/07/30 09:23:40;;;;;;;;;;;;;;;20.68;76.56;100462.25;4202371;28;19931;-72
2023/07/30 09:25:44;;;;;;;;;;;;;;;20.70;76.14;100465.59;4202583;28;19931;-73
2023/07/30 09:27:49;;;;;;;;;;;;;;;20.72;76.17;100475.47;4203847;28;20383;-74
2023/07/30 09:29:52;;;;;;;;;;;;;;;20.72;75.91;100476.31;4202769;28;20333;-73
2023/07/30 09:32:00;;;;;;;;;;;;;;;20.68;75.13;100467.72;4202806;28;19930;-72
2023/07/30 09:34:04;;;;;;;;;;;;;;;20.69;75.07;100474.88;4204190;28;19934;-73
2023/07/30 09:36:14;;;;;;;;;;;;;;;20.74;74.55;100478.81;4202404;28;19932;-72
2023/07/30 09:38:37;;;;;;;;;;;;;;;20.75;73.92;100470.28;4185011;28;19975;-72
2023/07/30 09:40:41;;;;;;;;;;;;;;;20.77;73.86;100484.63;4190602;28;20413;-72
2023/07/30 09:42:43;;;;;;;;;;;;;;;20.78;73.24;100485.44;4202049;28;19931;-72
2023/07/30 09:44:47;;;;;;;;;;;;;;;20.80;73.37;100488.75;4202194;28;19924;-72
2023/07/30 09:46:50;;;;;;;;;;;;;;;20.81;72.94;100476.69;4201379;28;19924;-72
2023/07/30 09:48:55;;;;;;;;;;;;;;;20.81;72.23;100487.69;4198705;28;19924;-71
2023/07/30 09:50:57;;;;;;;;;;;;;;;20.80;72.00;100500.59;4181747;28;19975;-72
2023/07/30 09:53:08;;;;;;;;;;;;;;;20.80;71.85;100497.84;4183850;28;19925;-72
2023/07/30 09:55:13;;;;;;;;;;;;;;;20.81;72.11;100493.16;4201970;28;19924;-69
2023/07/30 09:57:24;;;;;;;;;;;;;;;20.81;71.76;100496.72;4203523;28;19924;-72
2023/07/30 09:59:28;;;;;;;;;;;;;;;20.83;71.66;100493.72;4202499;28;19924;-72
2023/07/30 10:01:38;;;;;;;;;;;;;;;20.84;71.67;100493.47;4185737;28;19929;-72
2023/07/30 10:03:40;;;;;;;;;;;;;;;20.84;71.67;100488.00;4184062;28;19924;-71
2023/07/30 10:05:45;;;;;;;;;;;;;;;20.85;71.55;100497.91;4203483;28;19928;-72
2023/07/30 10:07:50;;;;;;;;;;;;;;;20.85;71.67;100497.91;4169068;28;19929;-72
2023/07/30 10:09:55;;;;;;;;;;;;;;;20.86;71.38;100485.84;4203198;28;20298;-72
2023/07/30 10:12:04;;;;;;;;;;;;;;;20.90;70.84;100488.09;4203559;28;19950;-72
2023/07/30 10:14:13;;;;;;;;;;;;;;;20.91;70.96;100489.72;4185172;28;20306;-71
2023/07/30 10:16:27;;;;;;;;;;;;;;;20.91;70.98;100492.47;4203442;28;19985;-72
2023/07/30 10:18:34;;;;;;;;;;;;;;;20.92;71.01;100494.16;4202815;28;20309;-71
2023/07/30 10:20:37;;;;;;;;;;;;;;;20.94;70.46;100502.97;4163044;28;20426;-71
2023/07/30 10:22:44;;;;;;;;;;;;;;;20.95;70.01;100501.88;4202586;28;20325;-71
2023/07/30 10:25:03;;;;;;;;;;;;;;;20.95;69.73;100490.91;4203366;28;19924;-71
2023/07/30 10:27:19;;;;;;;;;;;;;;;20.95;69.68;100499.97;4201240;28;19924;-71
2023/07/30 10:29:23;;;;;;;;;;;;;;;20.97;69.87;100497.81;4185081;28;19928;-71
2023/07/30 10:31:35;;;;;;;;;;;;;;;20.98;69.51;100488.47;4203699;28;19933;-71